Time;durP1;ratioP1;P1;durP2;ratioP2;P2;SDS_P1;SDS_P2;PMS_P1;PMS_P2;Temp;Humidity;BMP_temperature;BMP_pressure;BME280_temperature;BME280_humidity;BME280_pressure;Samples;Min_cycle;Max_cycle;Signal;HPM_P1;HPM_P2
2023/01/31 00:02:00;;;;;;;;;;;;;;;-2.49;83.28;97832.38;4988307;28;19929;-64
2023/01/31 00:04:26;;;;;;;;;;;;;;;-2.51;83.58;97834.47;5005218;28;19933;-64
2023/01/31 00:06:52;;;;;;;;;;;;;;;-2.55;84.03;97842.16;5003368;28;19929;-64
2023/01/31 00:09:18;;;;;;;;;;;;;;;-2.61;84.46;97827.06;4981079;28;19936;-63
2023/01/31 00:11:44;;;;;;;;;;;;;;;-2.64;84.74;97847.06;4985247;28;19930;-66
2023/01/31 00:14:16;;;;;;;;;;;;;;;-2.65;84.89;97836.63;5002664;28;19937;-65
2023/01/31 00:16:43;;;;;;;;;;;;;;;-2.65;84.88;97842.75;4985360;28;19929;-65
2023/01/31 00:19:09;;;;;;;;;;;;;;;-2.60;84.49;97844.75;4987673;28;20451;-65
2023/01/31 00:21:34;;;;;;;;;;;;;;;-2.61;84.40;97825.19;5005451;28;19933;-65
2023/01/31 00:24:00;;;;;;;;;;;;;;;-2.60;84.20;97834.84;4989113;28;19952;-65
2023/01/31 00:26:28;;;;;;;;;;;;;;;-2.61;84.19;97830.53;5004661;28;19929;-65
2023/01/31 00:28:54;;;;;;;;;;;;;;;-2.61;83.91;97832.41;4989533;28;19936;-65
2023/01/31 00:31:21;;;;;;;;;;;;;;;-2.57;83.92;97847.75;5006430;28;19937;-65
2023/01/31 00:33:50;;;;;;;;;;;;;;;-2.55;83.56;97836.00;5004340;28;19936;-65
2023/01/31 00:36:17;;;;;;;;;;;;;;;-2.59;83.63;97838.34;5007174;28;19997;-65
2023/01/31 00:38:46;;;;;;;;;;;;;;;-2.56;83.73;97829.81;5008455;28;19930;-65
2023/01/31 00:41:12;;;;;;;;;;;;;;;-2.49;83.40;97837.72;4986901;28;19987;-65
2023/01/31 00:43:38;;;;;;;;;;;;;;;-2.49;83.17;97841.22;5007000;28;20426;-64
2023/01/31 00:46:04;;;;;;;;;;;;;;;-2.50;83.54;97823.50;5004969;28;20031;-65
2023/01/31 00:48:30;;;;;;;;;;;;;;;-2.47;83.43;97846.31;4990014;28;19930;-64
2023/01/31 00:50:58;;;;;;;;;;;;;;;-2.48;83.20;97858.06;5007772;28;19952;-65
2023/01/31 00:53:24;;;;;;;;;;;;;;;-2.56;83.42;97845.88;5006721;28;19957;-65
2023/01/31 00:55:50;;;;;;;;;;;;;;;-2.52;83.34;97846.22;4989977;28;20009;-65
2023/01/31 00:58:16;;;;;;;;;;;;;;;-2.55;83.54;97844.03;5006704;28;19929;-65
2023/01/31 01:00:42;;;;;;;;;;;;;;;-2.54;83.18;97851.81;4987452;28;19971;-66
2023/01/31 01:03:08;;;;;;;;;;;;;;;-2.48;83.03;97858.91;4990249;28;19964;-65
2023/01/31 01:05:34;;;;;;;;;;;;;;;-2.43;82.80;97868.88;5006055;28;19972;-65
2023/01/31 01:08:01;;;;;;;;;;;;;;;-2.42;82.58;97879.34;5007411;28;19930;-65
2023/01/31 01:10:27;;;;;;;;;;;;;;;-2.41;82.52;97864.13;4989703;28;20396;-65
2023/01/31 01:12:53;;;;;;;;;;;;;;;-2.36;82.34;97856.19;5004100;28;20117;-65
2023/01/31 01:15:19;;;;;;;;;;;;;;;-2.37;82.48;97878.66;5001049;28;20375;-66
2023/01/31 01:17:45;;;;;;;;;;;;;;;-2.38;82.47;97862.81;5006645;28;19936;-65
2023/01/31 01:20:11;;;;;;;;;;;;;;;-2.35;82.55;97870.38;5003465;28;19933;-64
2023/01/31 01:22:37;;;;;;;;;;;;;;;-2.39;82.62;97859.34;4987418;28;20009;-63
2023/01/31 01:25:06;;;;;;;;;;;;;;;-2.42;82.97;97865.97;5003304;28;19929;-64
2023/01/31 01:27:31;;;;;;;;;;;;;;;-2.43;82.98;97875.06;5005021;28;19976;-64
2023/01/31 01:29:58;;;;;;;;;;;;;;;-2.45;83.15;97870.97;5005373;28;19929;-64
2023/01/31 01:32:24;;;;;;;;;;;;;;;-2.45;83.45;97887.88;4991430;28;20357;-64
2023/01/31 01:34:51;;;;;;;;;;;;;;;-2.42;83.36;97874.00;5003179;28;19936;-65
2023/01/31 01:37:20;;;;;;;;;;;;;;;-2.55;83.41;97852.06;5004334;28;19972;-64
2023/01/31 01:39:45;;;;;;;;;;;;;;;-2.42;83.17;97873.19;4987985;28;19977;-64
2023/01/31 01:42:15;;;;;;;;;;;;;;;-2.39;83.18;97877.25;4986364;28;20369;-65
2023/01/31 01:44:46;;;;;;;;;;;;;;;-2.40;82.82;97873.78;4983787;28;20397;-64
2023/01/31 01:47:15;;;;;;;;;;;;;;;-2.38;82.66;97895.78;4988158;28;19929;-64
2023/01/31 01:49:41;;;;;;;;;;;;;;;-2.35;82.65;97878.41;5000233;28;20020;-64
2023/01/31 01:52:08;;;;;;;;;;;;;;;-2.35;82.56;97881.06;4983424;28;19965;-64
2023/01/31 01:54:37;;;;;;;;;;;;;;;-2.31;82.41;97880.38;4967969;28;19936;-65
2023/01/31 01:57:06;;;;;;;;;;;;;;;-2.25;81.99;97872.47;4984437;28;20406;-64
2023/01/31 01:59:36;;;;;;;;;;;;;;;-2.27;81.85;97867.31;5001357;28;20083;-64
2023/01/31 02:02:02;;;;;;;;;;;;;;;-2.30;81.62;97878.53;4983933;28;19936;-64
2023/01/31 02:04:29;;;;;;;;;;;;;;;-2.32;82.15;97857.31;4982059;28;19934;-64
2023/01/31 02:06:55;;;;;;;;;;;;;;;-2.28;81.98;97871.06;4970043;28;19949;-64
2023/01/31 02:09:30;;;;;;;;;;;;;;;-2.25;81.97;97872.47;4985271;28;19933;-64
2023/01/31 02:11:57;;;;;;;;;;;;;;;-2.20;81.92;97875.22;4987820;28;20377;-64
2023/01/31 02:14:23;;;;;;;;;;;;;;;-2.21;81.43;97869.03;4987158;28;20408;-64
2023/01/31 02:17:12;;;;;;;;;;;;;;;-2.20;81.45;97857.28;4984393;28;19930;-63
2023/01/31 02:19:44;;;;;;;;;;;;;;;-2.21;81.53;97852.97;4984364;28;20250;-64
2023/01/31 02:22:14;;;;;;;;;;;;;;;-2.20;81.32;97849.25;4986280;28;20024;-64
2023/01/31 02:25:01;;;;;;;;;;;;;;;-2.22;81.33;97864.75;5000765;28;19980;-64
2023/01/31 02:27:33;;;;;;;;;;;;;;;-2.26;81.30;97852.06;4980144;28;20033;-64
2023/01/31 02:30:12;;;;;;;;;;;;;;;-2.32;81.60;97859.22;4983551;28;19940;-64
2023/01/31 02:32:46;;;;;;;;;;;;;;;-2.34;81.66;97843.38;4984243;28;20045;-64
2023/01/31 02:35:15;;;;;;;;;;;;;;;-2.36;81.43;97853.50;4985371;28;19976;-63
2023/01/31 02:37:46;;;;;;;;;;;;;;;-2.43;81.68;97861.69;4987786;28;20284;-64
2023/01/31 02:40:16;;;;;;;;;;;;;;;-2.45;81.94;97838.88;4982372;28;19930;-64
2023/01/31 02:42:47;;;;;;;;;;;;;;;-2.44;81.96;97865.41;4983036;28;20002;-64
2023/01/31 02:45:19;;;;;;;;;;;;;;;-2.44;81.95;97841.31;4983608;28;20352;-64
2023/01/31 02:48:06;;;;;;;;;;;;;;;-2.42;81.72;97836.53;4970817;28;19930;-64
2023/01/31 02:50:40;;;;;;;;;;;;;;;-2.42;81.82;97851.75;4984802;28;19930;-67
2023/01/31 02:53:07;;;;;;;;;;;;;;;-2.40;81.71;97847.00;4985797;28;20026;-65
2023/01/31 02:58:22;;;;;;;;;;;;;;;-2.35;81.49;97856.97;4985056;28;20381;-65
2023/01/31 03:00:48;;;;;;;;;;;;;;;-2.31;81.42;97845.56;4985116;28;20404;-64
2023/01/31 03:03:19;;;;;;;;;;;;;;;-2.22;80.92;97851.34;4984543;28;19930;-64
2023/01/31 03:05:55;;;;;;;;;;;;;;;-2.20;80.78;97845.75;4980030;28;19933;-65
2023/01/31 03:08:21;;;;;;;;;;;;;;;-2.21;80.89;97844.94;4968478;28;20369;-64
2023/01/31 03:10:57;;;;;;;;;;;;;;;-2.20;80.56;97849.25;4963345;28;19930;-64
2023/01/31 03:13:32;;;;;;;;;;;;;;;-2.23;80.69;97844.38;4981069;28;20025;-65
2023/01/31 03:18:53;;;;;;;;;;;;;;;-2.21;80.34;97855.66;4983919;28;20064;-65
2023/01/31 03:21:21;;;;;;;;;;;;;;;-2.22;80.59;97878.13;4984712;28;19936;-65
2023/01/31 03:23:50;;;;;;;;;;;;;;;-2.18;80.63;97860.56;5002228;28;19968;-65
2023/01/31 03:26:18;;;;;;;;;;;;;;;-2.17;80.46;97874.75;4986173;28;20492;-64
2023/01/31 03:28:45;;;;;;;;;;;;;;;-2.17;80.51;97870.22;4984878;28;19930;-65
2023/01/31 03:31:15;;;;;;;;;;;;;;;-2.17;80.32;97872.06;4983224;28;20361;-65
2023/01/31 03:33:42;;;;;;;;;;;;;;;-2.18;80.21;97875.78;4984821;28;19929;-65
2023/01/31 03:36:14;;;;;;;;;;;;;;;-2.17;79.99;97875.56;4984664;28;19930;-65
2023/01/31 03:38:45;;;;;;;;;;;;;;;-2.15;80.23;97875.31;4984428;28;19940;-64
2023/01/31 03:41:14;;;;;;;;;;;;;;;-2.15;80.14;97876.13;4984253;28;19952;-64
2023/01/31 03:43:45;;;;;;;;;;;;;;;-2.11;80.18;97887.16;4984103;28;20047;-64
2023/01/31 03:46:15;;;;;;;;;;;;;;;-2.12;79.99;97879.38;4997535;28;20358;-64
2023/01/31 03:48:43;;;;;;;;;;;;;;;-2.10;80.08;97896.03;4965300;28;20555;-64
2023/01/31 03:51:14;;;;;;;;;;;;;;;-2.10;80.06;97912.09;4984380;28;20280;-64
2023/01/31 03:53:43;;;;;;;;;;;;;;;-2.12;80.03;97890.91;4980473;28;20420;-65
2023/01/31 03:56:12;;;;;;;;;;;;;;;-2.22;80.08;97866.63;4987441;28;20424;-64
2023/01/31 03:58:41;;;;;;;;;;;;;;;-2.04;80.16;97900.41;4990384;28;20401;-65
2023/01/31 04:01:08;;;;;;;;;;;;;;;-2.06;79.87;97900.66;4989810;28;19942;-65
2023/01/31 04:03:37;;;;;;;;;;;;;;;-2.06;79.96;97895.31;4987706;28;19978;-64
2023/01/31 04:06:04;;;;;;;;;;;;;;;-2.08;79.80;97891.25;4988820;28;20210;-65
2023/01/31 04:08:32;;;;;;;;;;;;;;;-2.06;79.92;97878.41;4969783;28;19929;-64
2023/01/31 04:11:02;;;;;;;;;;;;;;;-2.06;79.79;97916.75;4986961;28;19938;-64
2023/01/31 04:13:28;;;;;;;;;;;;;;;-2.07;79.96;97884.81;4984783;28;19929;-64
2023/01/31 04:15:54;;;;;;;;;;;;;;;-2.04;79.84;97901.25;4989413;28;20279;-65
2023/01/31 04:18:19;;;;;;;;;;;;;;;-2.04;79.77;97890.53;4986338;28;19930;-64
2023/01/31 04:20:45;;;;;;;;;;;;;;;-2.02;79.80;97895.66;4988633;28;20503;-64
2023/01/31 04:23:11;;;;;;;;;;;;;;;-2.03;79.66;97899.38;4987437;28;19936;-65
2023/01/31 04:25:38;;;;;;;;;;;;;;;-2.00;79.84;97912.31;4988975;28;19938;-64
2023/01/31 04:28:04;;;;;;;;;;;;;;;-2.01;79.79;97903.44;4982354;28;19937;-65
2023/01/31 04:30:29;;;;;;;;;;;;;;;-2.02;79.85;97898.34;4986331;28;19929;-64
2023/01/31 04:32:55;;;;;;;;;;;;;;;-2.04;79.51;97908.44;4988442;28;19930;-65
2023/01/31 04:35:21;;;;;;;;;;;;;;;-2.02;79.86;97914.41;4990427;28;20556;-65
2023/01/31 04:37:50;;;;;;;;;;;;;;;-2.03;79.72;97939.53;4987746;28;19959;-65
2023/01/31 04:40:16;;;;;;;;;;;;;;;-2.03;79.89;97916.25;4988688;28;19929;-65
2023/01/31 04:42:43;;;;;;;;;;;;;;;-2.01;79.87;97919.50;4991752;28;20484;-65
2023/01/31 04:45:10;;;;;;;;;;;;;;;-2.01;79.98;97922.19;4983632;28;20084;-65
2023/01/31 04:47:35;;;;;;;;;;;;;;;-2.00;79.86;97921.13;4654960;28;9999674;-65
2023/01/31 04:50:01;;;;;;;;;;;;;;;-1.97;79.75;97927.06;4993752;28;19976;-65
2023/01/31 04:52:29;;;;;;;;;;;;;;;-1.95;79.93;97928.47;5000062;28;20024;-65
2023/01/31 04:54:54;;;;;;;;;;;;;;;-1.93;79.65;97929.03;5002951;28;20388;-65
2023/01/31 04:57:20;;;;;;;;;;;;;;;-1.97;79.53;97913.66;5004699;28;19933;-65
2023/01/31 04:59:49;;;;;;;;;;;;;;;-1.97;79.81;97933.25;4985949;28;19933;-65
2023/01/31 05:02:14;;;;;;;;;;;;;;;-1.95;79.67;97925.78;5004913;28;20427;-64
2023/01/31 05:04:40;;;;;;;;;;;;;;;-1.98;79.84;97923.59;4997830;28;20248;-64
2023/01/31 05:07:06;;;;;;;;;;;;;;;-2.02;80.03;97936.63;4988122;28;19980;-64
2023/01/31 05:09:32;;;;;;;;;;;;;;;-2.01;80.18;97935.59;4978786;28;19936;-64
2023/01/31 05:11:58;;;;;;;;;;;;;;;-2.03;80.42;97935.00;5006084;28;19929;-65
2023/01/31 05:14:23;;;;;;;;;;;;;;;-2.04;80.48;97927.19;5005227;28;19940;-65
2023/01/31 05:16:50;;;;;;;;;;;;;;;-2.05;80.52;97939.78;5006201;28;19933;-64
2023/01/31 05:19:16;;;;;;;;;;;;;;;-2.00;80.78;97929.16;5004307;28;19999;-65
2023/01/31 05:21:54;;;;;;;;;;;;;;;-2.01;80.55;97927.53;5006494;28;19977;-65
2023/01/31 05:24:20;;;;;;;;;;;;;;;-1.99;80.82;97940.72;5006824;28;19980;-65
2023/01/31 05:26:46;;;;;;;;;;;;;;;-2.00;80.31;97942.56;5007068;28;20026;-65
2023/01/31 05:29:12;;;;;;;;;;;;;;;-2.06;80.50;97948.88;5000513;28;19956;-64
2023/01/31 05:31:38;;;;;;;;;;;;;;;-2.08;81.11;97934.91;5003921;28;19929;-65
2023/01/31 05:34:06;;;;;;;;;;;;;;;-2.09;81.35;97945.88;5008828;28;19909;-64
2023/01/31 05:36:32;;;;;;;;;;;;;;;-2.07;81.19;97959.81;4999037;28;19939;-65
2023/01/31 05:38:58;;;;;;;;;;;;;;;-2.26;81.55;97924.34;4998413;28;19930;-65
2023/01/31 05:41:23;;;;;;;;;;;;;;;-2.14;81.70;97951.91;4997112;28;19929;-65
2023/01/31 05:43:49;;;;;;;;;;;;;;;-2.10;81.39;97953.09;4995017;28;20302;-65
2023/01/31 05:46:15;;;;;;;;;;;;;;;-2.23;81.50;97927.38;4996237;28;19991;-66
2023/01/31 05:48:44;;;;;;;;;;;;;;;-2.03;81.42;97937.69;4977400;28;19936;-65
2023/01/31 05:51:11;;;;;;;;;;;;;;;-1.97;80.97;97937.78;4923633;28;2102214;-65
2023/01/31 05:53:37;;;;;;;;;;;;;;;-2.00;80.94;97944.44;5003631;28;19936;-65
2023/01/31 05:56:03;;;;;;;;;;;;;;;-2.00;80.88;97955.16;5003931;28;19929;-64
2023/01/31 05:58:28;;;;;;;;;;;;;;;-1.98;81.16;97946.88;5006574;28;19987;-64
2023/01/31 06:00:55;;;;;;;;;;;;;;;-1.93;80.89;97968.41;5004887;28;19972;-65
2023/01/31 06:03:20;;;;;;;;;;;;;;;-1.92;80.81;97951.28;4988660;28;19929;-65
2023/01/31 06:05:46;;;;;;;;;;;;;;;-1.91;80.70;97961.75;5006975;28;19991;-64
2023/01/31 06:08:13;;;;;;;;;;;;;;;-1.94;80.42;97954.19;4991386;28;19936;-65
2023/01/31 06:10:39;;;;;;;;;;;;;;;-1.97;80.72;97954.69;5004797;28;19952;-64
2023/01/31 06:13:06;;;;;;;;;;;;;;;-1.93;80.60;97977.25;5000806;28;19930;-66
2023/01/31 06:15:32;;;;;;;;;;;;;;;-1.93;80.53;97976.47;5002662;28;20381;-64
2023/01/31 06:17:58;;;;;;;;;;;;;;;-1.95;80.61;97965.13;4987772;28;19936;-65
2023/01/31 06:20:24;;;;;;;;;;;;;;;-1.91;80.55;97975.16;5000534;28;20316;-65
2023/01/31 06:22:50;;;;;;;;;;;;;;;-1.87;80.58;97964.78;4999606;28;19930;-65
2023/01/31 06:25:17;;;;;;;;;;;;;;;-1.82;80.55;97990.88;5002893;28;19939;-64
2023/01/31 06:27:43;;;;;;;;;;;;;;;-1.85;80.42;97973.38;5005905;28;20266;-64
2023/01/31 06:30:10;;;;;;;;;;;;;;;-1.84;80.54;97975.00;5004906;28;19936;-65
2023/01/31 06:32:36;;;;;;;;;;;;;;;-1.80;80.52;97975.34;5007946;28;19933;-65
2023/01/31 06:35:02;;;;;;;;;;;;;;;-1.78;80.08;97978.59;4990765;28;19952;-65
2023/01/31 06:37:28;;;;;;;;;;;;;;;-1.79;80.40;97985.03;4989766;28;20392;-65
2023/01/31 06:39:54;;;;;;;;;;;;;;;-1.80;80.36;97984.19;4987968;28;19968;-65
2023/01/31 06:42:21;;;;;;;;;;;;;;;-1.77;80.35;97978.38;5006910;28;19957;-64
2023/01/31 06:44:47;;;;;;;;;;;;;;;-1.73;80.29;97998.28;5007177;28;20028;-64
2023/01/31 06:47:13;;;;;;;;;;;;;;;-1.74;79.99;98002.00;4989240;28;20111;-64
2023/01/31 06:49:39;;;;;;;;;;;;;;;-1.74;80.24;97993.97;5004140;28;20004;-65
2023/01/31 06:52:04;;;;;;;;;;;;;;;-1.69;80.17;98000.47;5006343;28;20397;-64
2023/01/31 06:54:30;;;;;;;;;;;;;;;-1.72;80.12;98002.59;4988170;28;19938;-64
2023/01/31 06:56:56;;;;;;;;;;;;;;;-1.67;80.16;98006.41;5002459;28;19983;-65
2023/01/31 06:59:23;;;;;;;;;;;;;;;-1.63;80.33;98008.38;5005262;28;19930;-64
2023/01/31 07:01:49;;;;;;;;;;;;;;;-1.59;79.65;98009.53;5006088;28;19995;-64
2023/01/31 07:04:15;;;;;;;;;;;;;;;-1.60;80.05;98009.78;4989641;28;19933;-64
2023/01/31 07:06:40;;;;;;;;;;;;;;;-1.54;79.77;98008.00;5007210;28;19957;-64
2023/01/31 07:09:06;;;;;;;;;;;;;;;-1.58;79.66;98013.81;5005567;28;19939;-65
2023/01/31 07:11:32;;;;;;;;;;;;;;;-1.56;79.80;98029.69;5004959;28;19929;-64
2023/01/31 07:13:57;;;;;;;;;;;;;;;-1.54;79.85;98011.50;5006719;28;20458;-64
2023/01/31 07:16:25;;;;;;;;;;;;;;;-1.48;79.91;98034.69;5007912;28;19984;-64
2023/01/31 07:18:51;;;;;;;;;;;;;;;-1.45;79.50;98033.38;5009028;28;20028;-65
2023/01/31 07:21:16;;;;;;;;;;;;;;;-1.48;79.35;98034.69;5007761;28;20024;-64
2023/01/31 07:23:44;;;;;;;;;;;;;;;-1.45;79.55;98031.50;5004180;28;20219;-64
2023/01/31 07:26:09;;;;;;;;;;;;;;;-1.39;79.00;98035.09;5003011;28;19969;-65
2023/01/31 07:28:35;;;;;;;;;;;;;;;-1.40;79.04;98038.00;4986725;28;19969;-65
2023/01/31 07:31:04;;;;;;;;;;;;;;;-1.44;79.36;98022.41;5004367;28;19933;-65
2023/01/31 07:33:31;;;;;;;;;;;;;;;-1.39;79.26;98029.75;4989070;28;20033;-64
2023/01/31 07:35:57;;;;;;;;;;;;;;;-1.38;79.31;98042.09;5006767;28;19976;-65
2023/01/31 07:38:23;;;;;;;;;;;;;;;-1.40;79.14;98041.53;4990659;28;20132;-65
2023/01/31 07:40:49;;;;;;;;;;;;;;;-1.47;79.22;98044.34;4986283;28;19930;-64
2023/01/31 07:43:14;;;;;;;;;;;;;;;-1.45;79.41;98044.91;4999731;28;19976;-65
2023/01/31 07:45:41;;;;;;;;;;;;;;;-1.39;79.60;98048.50;5000618;28;19957;-65
2023/01/31 07:48:07;;;;;;;;;;;;;;;-1.37;79.51;98050.94;4987306;28;19936;-65
2023/01/31 07:50:34;;;;;;;;;;;;;;;-1.36;79.28;98044.53;4998043;28;19933;-65
2023/01/31 07:53:00;;;;;;;;;;;;;;;-1.44;79.33;98053.75;5001991;28;19930;-65
2023/01/31 07:55:25;;;;;;;;;;;;;;;-1.44;79.62;98053.75;5000914;28;19948;-65
2023/01/31 07:57:51;;;;;;;;;;;;;;;-1.39;79.76;98061.09;5001323;28;19952;-65
2023/01/31 08:05:47;;;;;;;;;;;;;;;-1.32;79.61;98075.19;4987535;28;19972;-64
2023/01/31 08:08:13;;;;;;;;;;;;;;;-1.27;79.37;98079.81;5003498;28;19930;-65
2023/01/31 08:10:39;;;;;;;;;;;;;;;-1.25;79.10;98067.81;4999336;28;20312;-64
2023/01/31 08:13:05;;;;;;;;;;;;;;;-1.22;78.96;98064.63;4985009;28;19929;-64
2023/01/31 08:15:31;;;;;;;;;;;;;;;-1.17;79.07;98075.47;4999968;28;19944;-64
2023/01/31 08:17:56;;;;;;;;;;;;;;;-1.11;78.70;98086.28;5002966;28;19933;-65
2023/01/31 08:20:22;;;;;;;;;;;;;;;-1.08;78.50;98077.75;4983578;28;19937;-64
2023/01/31 08:22:53;;;;;;;;;;;;;;;-1.08;78.47;98083.94;4985153;28;20447;-64
2023/01/31 08:25:18;;;;;;;;;;;;;;;-1.06;78.10;98091.75;4979138;28;20152;-64
2023/01/31 08:27:44;;;;;;;;;;;;;;;-1.10;78.23;98083.34;5003626;28;20396;-64
2023/01/31 08:30:10;;;;;;;;;;;;;;;-1.12;78.33;98085.47;4984453;28;19980;-64
2023/01/31 08:32:36;;;;;;;;;;;;;;;-1.12;78.44;98088.16;4987785;28;19937;-65
2023/01/31 08:35:02;;;;;;;;;;;;;;;-1.11;78.51;98089.78;5003740;28;19936;-65
2023/01/31 08:37:28;;;;;;;;;;;;;;;-1.07;78.49;98084.75;5003262;28;19945;-65
2023/01/31 08:39:55;;;;;;;;;;;;;;;-1.03;78.32;98096.63;5002098;28;19937;-66
2023/01/31 08:42:21;;;;;;;;;;;;;;;-1.00;78.16;98080.06;4989306;28;20462;-65
2023/01/31 08:44:46;;;;;;;;;;;;;;;-1.02;78.00;98085.66;5000985;28;19933;-65
2023/01/31 08:47:12;;;;;;;;;;;;;;;-1.01;78.21;98089.97;5006556;28;19933;-65
2023/01/31 08:49:39;;;;;;;;;;;;;;;-1.04;78.33;98098.50;4988499;28;19929;-65
2023/01/31 08:52:05;;;;;;;;;;;;;;;-0.97;78.25;98097.53;5009014;28;19936;-64
2023/01/31 08:54:31;;;;;;;;;;;;;;;-0.93;78.08;98096.00;4991897;28;20020;-65
2023/01/31 08:56:58;;;;;;;;;;;;;;;-0.88;78.24;98088.84;5011397;28;19971;-65
2023/01/31 08:59:24;;;;;;;;;;;;;;;-0.80;77.76;98082.25;4990118;28;20405;-65
2023/01/31 09:01:49;;;;;;;;;;;;;;;-0.74;77.56;98086.69;5001229;28;19929;-65
2023/01/31 09:04:15;;;;;;;;;;;;;;;-0.78;77.36;98090.09;5006438;28;19936;-64
2023/01/31 09:06:41;;;;;;;;;;;;;;;-0.80;77.37;98106.41;5004872;28;19930;-64
2023/01/31 09:09:06;;;;;;;;;;;;;;;-0.83;77.50;98092.69;5005379;28;19972;-64
2023/01/31 09:11:34;;;;;;;;;;;;;;;-0.82;77.57;98087.06;5006041;28;19975;-64
2023/01/31 09:14:01;;;;;;;;;;;;;;;-0.72;77.52;98099.84;5006948;28;19935;-64
2023/01/31 09:16:27;;;;;;;;;;;;;;;-0.65;76.90;98092.47;4990268;28;19929;-64
2023/01/31 09:18:53;;;;;;;;;;;;;;;-0.64;76.77;98079.84;5006664;28;19939;-70
2023/01/31 09:21:20;;;;;;;;;;;;;;;-0.60;77.14;98100.59;5006141;28;19929;-64
2023/01/31 09:23:47;;;;;;;;;;;;;;;-0.57;76.90;98099.28;5007209;28;19944;-64
2023/01/31 09:26:12;;;;;;;;;;;;;;;-0.50;76.72;98091.88;5009073;28;19944;-64
2023/01/31 09:28:41;;;;;;;;;;;;;;;-0.51;76.33;98089.47;5006876;28;19933;-64
2023/01/31 09:31:09;;;;;;;;;;;;;;;-0.54;76.47;98124.84;5009754;28;20031;-64
2023/01/31 09:33:35;;;;;;;;;;;;;;;-0.54;76.65;98080.00;5005138;28;19930;-64
2023/01/31 09:36:02;;;;;;;;;;;;;;;-0.47;76.68;98091.41;4995782;28;19929;-65
2023/01/31 09:38:28;;;;;;;;;;;;;;;-0.37;76.37;98081.88;4988989;28;20040;-65
2023/01/31 09:40:55;;;;;;;;;;;;;;;-0.33;75.81;98085.69;4984699;28;20040;-65
2023/01/31 09:43:23;;;;;;;;;;;;;;;-0.31;75.73;98094.34;5008833;28;20472;-65
2023/01/31 09:45:50;;;;;;;;;;;;;;;-0.32;75.88;98092.69;5004961;28;19937;-65
2023/01/31 09:48:21;;;;;;;;;;;;;;;-0.34;75.78;98108.25;4987571;28;19929;-65
2023/01/31 09:50:49;;;;;;;;;;;;;;;-0.40;76.14;98088.53;4994305;28;19940;-65
2023/01/31 09:53:25;;;;;;;;;;;;;;;-0.40;76.30;98101.97;5000493;28;20167;-65
2023/01/31 09:55:56;;;;;;;;;;;;;;;-0.46;75.99;98090.34;5012192;28;19953;-64
2023/01/31 09:58:30;;;;;;;;;;;;;;;-0.38;76.18;98091.81;4974833;28;19980;-65
2023/01/31 10:01:02;;;;;;;;;;;;;;;-0.38;75.89;98096.38;5003691;28;20351;-65
2023/01/31 10:03:39;;;;;;;;;;;;;;;-0.37;76.20;98090.75;4999982;28;19930;-64
2023/01/31 10:06:12;;;;;;;;;;;;;;;-0.33;75.72;98096.44;4988616;28;19930;-64
2023/01/31 10:08:43;;;;;;;;;;;;;;;-0.33;75.61;98096.44;4962497;28;19940;-65
2023/01/31 10:11:12;;;;;;;;;;;;;;;-0.25;75.39;98087.97;5000550;28;19956;-64
2023/01/31 10:13:40;;;;;;;;;;;;;;;-0.23;75.45;98103.84;4989284;28;20408;-64
2023/01/31 10:16:13;;;;;;;;;;;;;;;-0.26;74.90;98091.72;5003543;28;20032;-64
2023/01/31 10:18:41;;;;;;;;;;;;;;;-0.29;74.91;98106.44;4990384;28;20234;-65
2023/01/31 10:21:10;;;;;;;;;;;;;;;-0.36;75.03;98099.63;4976311;28;19929;-65
2023/01/31 10:23:38;;;;;;;;;;;;;;;-0.36;75.29;98113.88;4994289;28;19929;-65
2023/01/31 10:26:05;;;;;;;;;;;;;;;-0.30;74.81;98128.19;5004326;28;20336;-65
2023/01/31 10:28:34;;;;;;;;;;;;;;;-0.33;75.23;98112.56;4968228;28;19940;-65
2023/01/31 10:31:02;;;;;;;;;;;;;;;-0.35;75.36;98122.72;4972043;28;19944;-65
2023/01/31 10:33:34;;;;;;;;;;;;;;;-0.36;75.53;98129.16;4994405;28;19929;-65
2023/01/31 10:36:03;;;;;;;;;;;;;;;-0.40;75.53;98131.50;5004745;28;19929;-65
2023/01/31 10:38:31;;;;;;;;;;;;;;;-0.37;75.64;98098.81;5005463;28;19930;-65
2023/01/31 10:41:01;;;;;;;;;;;;;;;-0.32;75.53;98117.69;5005354;28;19933;-64
2023/01/31 10:43:32;;;;;;;;;;;;;;;-0.30;75.57;98122.81;5004222;28;19976;-64
2023/01/31 10:45:58;;;;;;;;;;;;;;;-0.19;75.12;98115.72;4989328;28;20411;-64
2023/01/31 10:48:28;;;;;;;;;;;;;;;-0.17;74.93;98116.28;5001902;28;20636;-65
2023/01/31 10:51:01;;;;;;;;;;;;;;;-0.21;74.92;98129.41;4969178;28;20510;-65
2023/01/31 10:53:36;;;;;;;;;;;;;;;-0.19;74.88;98102.31;5003036;28;19941;-64
2023/01/31 10:56:03;;;;;;;;;;;;;;;-0.09;74.53;98112.38;4993613;28;20014;-65
2023/01/31 10:58:30;;;;;;;;;;;;;;;-0.13;74.38;98130.06;4988208;28;19936;-64
2023/01/31 11:00:56;;;;;;;;;;;;;;;-0.18;75.00;98115.47;5002933;28;19929;-65
2023/01/31 11:03:22;;;;;;;;;;;;;;;-0.17;74.97;98127.84;5005875;28;19930;-65
2023/01/31 11:05:50;;;;;;;;;;;;;;;-0.14;74.61;98115.81;4988071;28;19937;-65
2023/01/31 11:08:30;;;;;;;;;;;;;;;-0.23;74.72;98112.72;5002698;28;20439;-65
2023/01/31 11:11:03;;;;;;;;;;;;;;;-0.27;74.97;98125.03;5009324;28;19933;-65
2023/01/31 11:13:28;;;;;;;;;;;;;;;-0.31;75.06;98119.31;5005776;28;19930;-64
2023/01/31 11:15:54;;;;;;;;;;;;;;;-0.27;74.99;98116.97;5011711;28;19980;-65
2023/01/31 11:18:26;;;;;;;;;;;;;;;-0.27;74.79;98114.28;4988371;28;20036;-64
2023/01/31 11:20:52;;;;;;;;;;;;;;;-0.26;75.04;98112.38;5002242;28;19930;-64
2023/01/31 11:23:21;;;;;;;;;;;;;;;-0.25;75.03;98122.06;4989737;28;19929;-64
2023/01/31 11:25:48;;;;;;;;;;;;;;;-0.20;74.89;98111.41;4987626;28;19983;-65
2023/01/31 11:28:20;;;;;;;;;;;;;;;-0.16;75.06;98126.81;5004723;28;20380;-65
2023/01/31 11:30:48;;;;;;;;;;;;;;;-0.16;74.41;98153.69;5000554;28;19930;-65
2023/01/31 11:33:28;;;;;;;;;;;;;;;-0.23;74.58;98123.47;5006520;28;20036;-64
2023/01/31 11:35:54;;;;;;;;;;;;;;;-0.32;74.96;98128.44;5002397;28;20393;-64
2023/01/31 11:38:21;;;;;;;;;;;;;;;-0.31;75.15;98123.88;4987847;28;19935;-65
2023/01/31 11:40:47;;;;;;;;;;;;;;;-0.28;75.19;98120.72;5004206;28;20348;-65
2023/01/31 11:43:23;;;;;;;;;;;;;;;-0.23;75.29;98133.41;5001581;28;19936;-64
2023/01/31 11:45:54;;;;;;;;;;;;;;;-0.28;75.23;98128.75;4988877;28;20221;-64
2023/01/31 11:48:22;;;;;;;;;;;;;;;-0.29;75.19;98133.31;5004371;28;20420;-64
2023/01/31 11:50:50;;;;;;;;;;;;;;;-0.29;75.04;98124.44;4986345;28;19947;-64
2023/01/31 11:53:18;;;;;;;;;;;;;;;-0.29;75.03;98133.31;5003787;28;20012;-64
2023/01/31 11:55:45;;;;;;;;;;;;;;;-0.34;75.18;98127.03;5002165;28;19933;-65
2023/01/31 11:58:15;;;;;;;;;;;;;;;-0.33;75.41;98132.19;5003153;28;19955;-65
2023/01/31 12:00:49;;;;;;;;;;;;;;;-0.31;75.35;98137.31;4989314;28;19934;-65
2023/01/31 12:03:16;;;;;;;;;;;;;;;-0.29;75.41;98140.56;4999809;28;20355;-65
2023/01/31 12:05:43;;;;;;;;;;;;;;;-0.31;75.19;98134.63;4990963;28;19937;-66
2023/01/31 12:08:24;;;;;;;;;;;;;;;-0.32;75.19;98149.09;4985639;28;19968;-65
2023/01/31 12:10:50;;;;;;;;;;;;;;;-0.31;75.25;98137.31;5002534;28;20185;-64
2023/01/31 12:13:17;;;;;;;;;;;;;;;-0.27;75.28;98133.06;4998638;28;20056;-64
2023/01/31 12:15:54;;;;;;;;;;;;;;;-0.22;75.34;98151.94;4991406;28;19936;-64
2023/01/31 12:18:23;;;;;;;;;;;;;;;-0.19;74.97;98148.78;4969599;28;20406;-65
2023/01/31 12:20:57;;;;;;;;;;;;;;;-0.21;74.88;98144.72;5002897;28;19961;-65
2023/01/31 12:23:33;;;;;;;;;;;;;;;-0.21;75.20;98142.03;4990489;28;20140;-64
2023/01/31 12:26:03;;;;;;;;;;;;;;;-0.25;75.18;98148.94;5003654;28;19936;-64
2023/01/31 12:28:35;;;;;;;;;;;;;;;-0.28;75.33;98158.31;5003247;28;19952;-64
2023/01/31 12:31:20;;;;;;;;;;;;;;;-0.32;75.60;98147.25;4990945;28;19935;-64
2023/01/31 12:33:54;;;;;;;;;;;;;;;-0.35;75.56;98168.38;5006960;28;20024;-64
2023/01/31 12:36:31;;;;;;;;;;;;;;;-0.35;75.92;98158.47;5004989;28;20404;-64
2023/01/31 12:39:12;;;;;;;;;;;;;;;-0.31;75.94;98167.66;5003679;28;20036;-64
2023/01/31 12:41:39;;;;;;;;;;;;;;;-0.34;75.92;98161.97;5000216;28;19929;-64
2023/01/31 12:44:15;;;;;;;;;;;;;;;-0.35;75.76;98177.28;4989593;28;19936;-63
2023/01/31 12:46:49;;;;;;;;;;;;;;;-0.34;76.18;98172.69;4985821;28;20360;-64
2023/01/31 12:49:29;;;;;;;;;;;;;;;-0.34;76.05;98176.22;4987247;28;19934;-64
2023/01/31 12:51:59;;;;;;;;;;;;;;;-0.37;76.33;98186.63;4986591;28;20526;-64
2023/01/31 12:54:34;;;;;;;;;;;;;;;-0.39;76.27;98184.19;4983614;28;19988;-68
2023/01/31 12:57:06;;;;;;;;;;;;;;;-0.42;76.56;98184.66;4988952;28;20080;-66
2023/01/31 12:59:45;;;;;;;;;;;;;;;-0.44;77.00;98194.84;4984527;28;20799;-65
2023/01/31 13:02:19;;;;;;;;;;;;;;;-0.43;76.81;98208.03;4986629;28;20012;-64